sensor_id;sensor_type;location;lat;lon;timestamp;temperature;humidity
9107;DHT22;4589;48.690;8.952;2023-02-15T00:00:31;-1.60;99.90
9107;DHT22;4589;48.690;8.952;2023-02-15T00:02:57;-1.60;99.90
9107;DHT22;4589;48.690;8.952;2023-02-15T00:07:48;-1.50;99.90
9107;DHT22;4589;48.690;8.952;2023-02-15T00:12:40;-1.50;99.90
9107;DHT22;4589;48.690;8.952;2023-02-15T00:15:05;-1.50;99.90
9107;DHT22;4589;48.690;8.952;2023-02-15T00:17:31;-1.50;99.90
9107;DHT22;4589;48.690;8.952;2023-02-15T00:36:59;-1.70;99.90
9107;DHT22;4589;48.690;8.952;2023-02-15T00:39:24;-1.60;99.90
9107;DHT22;4589;48.690;8.952;2023-02-15T00:44:16;-1.60;99.90
9107;DHT22;4589;48.690;8.952;2023-02-15T00:46:42;-1.60;99.90
9107;DHT22;4589;48.690;8.952;2023-02-15T00:58:53;-1.90;99.90
9107;DHT22;4589;48.690;8.952;2023-02-15T01:01:20;-2.10;99.90
9107;DHT22;4589;48.690;8.952;2023-02-15T01:03:46;-2.10;99.90
9107;DHT22;4589;48.690;8.952;2023-02-15T01:06:16;-2.20;99.90
9107;DHT22;4589;48.690;8.952;2023-02-15T01:08:42;-2.20;99.90
9107;DHT22;4589;48.690;8.952;2023-02-15T01:11:11;-2.20;99.90
9107;DHT22;4589;48.690;8.952;2023-02-15T01:13:37;-2.00;99.90
9107;DHT22;4589;48.690;8.952;2023-02-15T01:16:03;-1.90;99.90
9107;DHT22;4589;48.690;8.952;2023-02-15T01:20:55;-1.90;99.90
9107;DHT22;4589;48.690;8.952;2023-02-15T01:23:21;-1.90;99.90
9107;DHT22;4589;48.690;8.952;2023-02-15T01:25:47;-1.70;99.90
9107;DHT22;4589;48.690;8.952;2023-02-15T01:30:39;-1.70;99.90
9107;DHT22;4589;48.690;8.952;2023-02-15T01:35:31;-1.70;99.90
9107;DHT22;4589;48.690;8.952;2023-02-15T01:40:23;-1.90;99.90
9107;DHT22;4589;48.690;8.952;2023-02-15T01:42:53;-2.10;99.90
9107;DHT22;4589;48.690;8.952;2023-02-15T01:45:27;-2.20;99.90
9107;DHT22;4589;48.690;8.952;2023-02-15T01:48:02;-2.30;99.90
9107;DHT22;4589;48.690;8.952;2023-02-15T01:50:35;-2.40;99.90
9107;DHT22;4589;48.690;8.952;2023-02-15T01:53:08;-2.50;99.90
9107;DHT22;4589;48.690;8.952;2023-02-15T01:55:46;-2.50;99.90
9107;DHT22;4589;48.690;8.952;2023-02-15T01:58:13;-2.30;99.90
9107;DHT22;4589;48.690;8.952;2023-02-15T02:03:14;-2.30;99.90
9107;DHT22;4589;48.690;8.952;2023-02-15T02:05:41;-2.30;99.90
9107;DHT22;4589;48.690;8.952;2023-02-15T02:08:07;-2.20;99.90
9107;DHT22;4589;48.690;8.952;2023-02-15T02:10:35;-2.20;99.90
9107;DHT22;4589;48.690;8.952;2023-02-15T02:13:04;-2.30;99.90
9107;DHT22;4589;48.690;8.952;2023-02-15T02:18:41;-2.40;99.90
9107;DHT22;4589;48.690;8.952;2023-02-15T02:24:40;-2.50;99.90
9107;DHT22;4589;48.690;8.952;2023-02-15T02:33:00;-2.40;99.90
9107;DHT22;4589;48.690;8.952;2023-02-15T02:38:11;-2.40;99.90
9107;DHT22;4589;48.690;8.952;2023-02-15T02:43:49;-2.80;99.90
9107;DHT22;4589;48.690;8.952;2023-02-15T02:46:37;-3.10;99.90
9107;DHT22;4589;48.690;8.952;2023-02-15T02:49:03;-3.10;99.90
9107;DHT22;4589;48.690;8.952;2023-02-15T02:53:57;-3.20;99.90
9107;DHT22;4589;48.690;8.952;2023-02-15T02:56:43;-3.30;99.90
9107;DHT22;4589;48.690;8.952;2023-02-15T02:59:20;-3.20;99.90
9107;DHT22;4589;48.690;8.952;2023-02-15T03:04:30;-3.30;99.90
9107;DHT22;4589;48.690;8.952;2023-02-15T03:07:06;-3.30;99.90
9107;DHT22;4589;48.690;8.952;2023-02-15T03:09:45;-3.30;99.90
9107;DHT22;4589;48.690;8.952;2023-02-15T03:12:26;-3.00;99.90
9107;DHT22;4589;48.690;8.952;2023-02-15T03:14:56;-2.80;99.90
9107;DHT22;4589;48.690;8.952;2023-02-15T03:17:27;-2.60;99.90
9107;DHT22;4589;48.690;8.952;2023-02-15T03:19:57;-2.60;99.90
9107;DHT22;4589;48.690;8.952;2023-02-15T03:22:49;-2.70;99.90
9107;DHT22;4589;48.690;8.952;2023-02-15T03:25:25;-2.70;99.90
9107;DHT22;4589;48.690;8.952;2023-02-15T03:27:55;-2.60;99.90
9107;DHT22;4589;48.690;8.952;2023-02-15T03:30:25;-2.70;99.90
9107;DHT22;4589;48.690;8.952;2023-02-15T03:32:53;-2.70;99.90
9107;DHT22;4589;48.690;8.952;2023-02-15T03:35:22;-2.70;99.90
9107;DHT22;4589;48.690;8.952;2023-02-15T03:37:58;-2.70;99.90
9107;DHT22;4589;48.690;8.952;2023-02-15T03:43:27;-2.50;99.90
9107;DHT22;4589;48.690;8.952;2023-02-15T03:46:01;-2.40;99.90
9107;DHT22;4589;48.690;8.952;2023-02-15T03:48:36;-2.50;99.90
9107;DHT22;4589;48.690;8.952;2023-02-15T03:51:07;-2.70;99.90
9107;DHT22;4589;48.690;8.952;2023-02-15T03:53:52;-2.80;99.90
9107;DHT22;4589;48.690;8.952;2023-02-15T04:04:41;-2.90;99.90
9107;DHT22;4589;48.690;8.952;2023-02-15T04:07:09;-2.90;99.90
9107;DHT22;4589;48.690;8.952;2023-02-15T04:12:19;-3.10;99.90
9107;DHT22;4589;48.690;8.952;2023-02-15T04:19:55;-3.00;99.90
9107;DHT22;4589;48.690;8.952;2023-02-15T04:22:40;-3.00;99.90
9107;DHT22;4589;48.690;8.952;2023-02-15T04:25:24;-3.00;99.90
9107;DHT22;4589;48.690;8.952;2023-02-15T04:27:51;-2.90;99.90
9107;DHT22;4589;48.690;8.952;2023-02-15T04:30:19;-2.90;99.90
9107;DHT22;4589;48.690;8.952;2023-02-15T04:35:12;-2.90;99.90
9107;DHT22;4589;48.690;8.952;2023-02-15T04:37:39;-2.90;99.90
9107;DHT22;4589;48.690;8.952;2023-02-15T04:40:05;-3.00;99.90
9107;DHT22;4589;48.690;8.952;2023-02-15T04:52:15;-2.90;99.90
9107;DHT22;4589;48.690;8.952;2023-02-15T05:23:55;-3.40;99.90
9107;DHT22;4589;48.690;8.952;2023-02-15T05:26:23;-3.50;99.90
9107;DHT22;4589;48.690;8.952;2023-02-15T05:29:08;-3.40;99.90
9107;DHT22;4589;48.690;8.952;2023-02-15T05:31:35;-3.40;99.90
9107;DHT22;4589;48.690;8.952;2023-02-15T05:36:27;-3.40;99.90
9107;DHT22;4589;48.690;8.952;2023-02-15T05:38:53;-3.40;99.90
9107;DHT22;4589;48.690;8.952;2023-02-15T05:46:12;-3.30;99.90
9107;DHT22;4589;48.690;8.952;2023-02-15T05:48:37;-3.10;99.90
9107;DHT22;4589;48.690;8.952;2023-02-15T05:51:10;-3.10;99.90
9107;DHT22;4589;48.690;8.952;2023-02-15T05:53:39;-3.20;99.90
9107;DHT22;4589;48.690;8.952;2023-02-15T05:56:08;-3.20;99.90
9107;DHT22;4589;48.690;8.952;2023-02-15T05:58:42;-3.40;99.90
9107;DHT22;4589;48.690;8.952;2023-02-15T06:01:15;-3.40;99.90
9107;DHT22;4589;48.690;8.952;2023-02-15T06:06:09;-3.40;99.90
9107;DHT22;4589;48.690;8.952;2023-02-15T06:08:36;-3.40;99.90
9107;DHT22;4589;48.690;8.952;2023-02-15T06:11:02;-3.40;99.90
9107;DHT22;4589;48.690;8.952;2023-02-15T06:32:57;-3.80;99.90
9107;DHT22;4589;48.690;8.952;2023-02-15T06:40:15;-3.90;99.90
9107;DHT22;4589;48.690;8.952;2023-02-15T06:42:43;-4.00;99.90
9107;DHT22;4589;48.690;8.952;2023-02-15T06:45:09;-4.00;99.90
9107;DHT22;4589;48.690;8.952;2023-02-15T06:47:35;-3.90;99.90
9107;DHT22;4589;48.690;8.952;2023-02-15T06:50:02;-3.80;99.90
9107;DHT22;4589;48.690;8.952;2023-02-15T06:54:54;-3.70;99.90
9107;DHT22;4589;48.690;8.952;2023-02-15T07:07:08;-3.40;99.90
9107;DHT22;4589;48.690;8.952;2023-02-15T07:09:34;-3.30;99.90
9107;DHT22;4589;48.690;8.952;2023-02-15T07:14:44;-3.00;99.90
9107;DHT22;4589;48.690;8.952;2023-02-15T07:17:10;-3.00;99.90
9107;DHT22;4589;48.690;8.952;2023-02-15T07:24:29;-2.70;99.90
9107;DHT22;4589;48.690;8.952;2023-02-15T07:26:54;-2.70;99.90
9107;DHT22;4589;48.690;8.952;2023-02-15T07:29:20;-2.60;99.90
9107;DHT22;4589;48.690;8.952;2023-02-15T07:36:38;-2.40;99.90
9107;DHT22;4589;48.690;8.952;2023-02-15T07:51:14;-1.40;99.90
9107;DHT22;4589;48.690;8.952;2023-02-15T07:56:09;-1.00;99.90
9107;DHT22;4589;48.690;8.952;2023-02-15T08:01:25;0.00;99.90
9107;DHT22;4589;48.690;8.952;2023-02-15T08:11:17;3.50;99.90
9107;DHT22;4589;48.690;8.952;2023-02-15T08:18:54;4.70;99.90
9107;DHT22;4589;48.690;8.952;2023-02-15T08:21:20;4.60;99.90
9107;DHT22;4589;48.690;8.952;2023-02-15T08:28:40;6.80;99.90
9107;DHT22;4589;48.690;8.952;2023-02-15T08:31:13;7.00;99.90
9107;DHT22;4589;48.690;8.952;2023-02-15T08:33:41;6.30;99.90
9107;DHT22;4589;48.690;8.952;2023-02-15T08:36:12;6.10;99.90
9107;DHT22;4589;48.690;8.952;2023-02-15T08:38:38;6.20;99.90
9107;DHT22;4589;48.690;8.952;2023-02-15T08:41:24;7.60;99.90
9107;DHT22;4589;48.690;8.952;2023-02-15T08:43:52;7.80;99.90
9107;DHT22;4589;48.690;8.952;2023-02-15T08:46:22;8.40;99.90
9107;DHT22;4589;48.690;8.952;2023-02-15T08:51:20;10.90;99.90
9107;DHT22;4589;48.690;8.952;2023-02-15T08:53:48;10.70;99.90
9107;DHT22;4589;48.690;8.952;2023-02-15T08:56:15;10.40;99.90
9107;DHT22;4589;48.690;8.952;2023-02-15T08:58:41;11.10;99.90
9107;DHT22;4589;48.690;8.952;2023-02-15T09:01:11;10.00;99.90
9107;DHT22;4589;48.690;8.952;2023-02-15T09:03:38;10.70;99.90
9107;DHT22;4589;48.690;8.952;2023-02-15T09:06:04;11.70;99.90
9107;DHT22;4589;48.690;8.952;2023-02-15T09:08:29;10.70;99.90
9107;DHT22;4589;48.690;8.952;2023-02-15T09:11:05;10.60;99.90
9107;DHT22;4589;48.690;8.952;2023-02-15T09:13:31;10.50;99.90
9107;DHT22;4589;48.690;8.952;2023-02-15T09:16:01;10.50;99.90
9107;DHT22;4589;48.690;8.952;2023-02-15T09:18:28;11.30;99.90
9107;DHT22;4589;48.690;8.952;2023-02-15T09:23:20;11.30;99.90
9107;DHT22;4589;48.690;8.952;2023-02-15T09:25:46;11.50;99.90
9107;DHT22;4589;48.690;8.952;2023-02-15T09:37:55;13.40;99.90
9107;DHT22;4589;48.690;8.952;2023-02-15T09:40:21;13.80;99.90
9107;DHT22;4589;48.690;8.952;2023-02-15T09:45:56;14.90;99.90
9107;DHT22;4589;48.690;8.952;2023-02-15T10:18:04;15.10;99.90
9107;DHT22;4589;48.690;8.952;2023-02-15T10:20:59;15.90;99.90
9107;DHT22;4589;48.690;8.952;2023-02-15T10:23:46;16.50;99.90
9107;DHT22;4589;48.690;8.952;2023-02-15T10:29:52;17.10;99.90
9107;DHT22;4589;48.690;8.952;2023-02-15T10:32:03;18.00;99.90
9107;DHT22;4589;48.690;8.952;2023-02-15T10:37:21;16.70;99.90
9107;DHT22;4589;48.690;8.952;2023-02-15T10:43:10;18.50;99.90
9107;DHT22;4589;48.690;8.952;2023-02-15T10:50:57;20.60;99.90
9107;DHT22;4589;48.690;8.952;2023-02-15T11:04:53;20.00;99.90
9107;DHT22;4589;48.690;8.952;2023-02-15T11:07:25;22.20;99.90
9107;DHT22;4589;48.690;8.952;2023-02-15T11:10:01;22.70;99.90
9107;DHT22;4589;48.690;8.952;2023-02-15T11:12:30;22.90;99.90
9107;DHT22;4589;48.690;8.952;2023-02-15T11:17:30;21.40;99.90
9107;DHT22;4589;48.690;8.952;2023-02-15T11:22:33;23.00;99.90
9107;DHT22;4589;48.690;8.952;2023-02-15T11:25:01;21.70;99.90
9107;DHT22;4589;48.690;8.952;2023-02-15T11:27:30;22.80;99.90
9107;DHT22;4589;48.690;8.952;2023-02-15T11:30:10;22.10;99.90
9107;DHT22;4589;48.690;8.952;2023-02-15T11:32:45;24.20;99.90
9107;DHT22;4589;48.690;8.952;2023-02-15T11:37:49;23.60;99.90
9107;DHT22;4589;48.690;8.952;2023-02-15T11:42:55;25.30;99.90
9107;DHT22;4589;48.690;8.952;2023-02-15T11:45:22;25.40;99.90
9107;DHT22;4589;48.690;8.952;2023-02-15T11:47:51;25.80;99.90
9107;DHT22;4589;48.690;8.952;2023-02-15T11:50:22;25.40;99.90
9107;DHT22;4589;48.690;8.952;2023-02-15T11:52:50;25.20;99.90
9107;DHT22;4589;48.690;8.952;2023-02-15T11:55:21;25.60;99.90
9107;DHT22;4589;48.690;8.952;2023-02-15T12:00:39;25.90;99.90
9107;DHT22;4589;48.690;8.952;2023-02-15T12:05:42;27.00;99.90
9107;DHT22;4589;48.690;8.952;2023-02-15T12:08:17;26.40;99.90
9107;DHT22;4589;48.690;8.952;2023-02-15T12:11:20;26.40;99.90
9107;DHT22;4589;48.690;8.952;2023-02-15T12:14:03;25.80;99.90
9107;DHT22;4589;48.690;8.952;2023-02-15T12:16:34;26.00;99.90
9107;DHT22;4589;48.690;8.952;2023-02-15T12:19:05;25.40;99.90
9107;DHT22;4589;48.690;8.952;2023-02-15T12:21:34;25.90;99.90
9107;DHT22;4589;48.690;8.952;2023-02-15T12:24:30;25.80;99.90
9107;DHT22;4589;48.690;8.952;2023-02-15T12:27:01;24.60;99.90
9107;DHT22;4589;48.690;8.952;2023-02-15T12:29:39;24.80;99.90
9107;DHT22;4589;48.690;8.952;2023-02-15T12:32:06;22.80;99.90
9107;DHT22;4589;48.690;8.952;2023-02-15T12:34:38;25.10;99.90
9107;DHT22;4589;48.690;8.952;2023-02-15T12:37:19;25.50;99.90
9107;DHT22;4589;48.690;8.952;2023-02-15T12:40:00;26.40;99.90
9107;DHT22;4589;48.690;8.952;2023-02-15T12:42:28;26.80;99.90
9107;DHT22;4589;48.690;8.952;2023-02-15T12:45:27;27.20;99.90
9107;DHT22;4589;48.690;8.952;2023-02-15T12:48:15;26.50;99.90
9107;DHT22;4589;48.690;8.952;2023-02-15T12:50:43;25.60;99.90
9107;DHT22;4589;48.690;8.952;2023-02-15T12:53:16;26.20;99.90
9107;DHT22;4589;48.690;8.952;2023-02-15T12:56:10;26.00;99.90
9107;DHT22;4589;48.690;8.952;2023-02-15T12:58:38;25.90;99.90
9107;DHT22;4589;48.690;8.952;2023-02-15T13:06:23;23.50;99.90
9107;DHT22;4589;48.690;8.952;2023-02-15T13:08:50;21.80;99.90
9107;DHT22;4589;48.690;8.952;2023-02-15T13:11:29;20.80;99.90
9107;DHT22;4589;48.690;8.952;2023-02-15T13:14:16;21.10;99.90
9107;DHT22;4589;48.690;8.952;2023-02-15T13:16:45;20.50;99.90
9107;DHT22;4589;48.690;8.952;2023-02-15T13:19:33;20.30;99.90
9107;DHT22;4589;48.690;8.952;2023-02-15T13:22:04;20.00;99.90
9107;DHT22;4589;48.690;8.952;2023-02-15T13:24:39;20.20;99.90
9107;DHT22;4589;48.690;8.952;2023-02-15T13:27:13;20.20;99.90
9107;DHT22;4589;48.690;8.952;2023-02-15T13:29:41;19.80;99.90
9107;DHT22;4589;48.690;8.952;2023-02-15T13:32:24;19.80;99.90
9107;DHT22;4589;48.690;8.952;2023-02-15T13:34:52;19.10;99.90
9107;DHT22;4589;48.690;8.952;2023-02-15T13:40:18;18.20;99.90
9107;DHT22;4589;48.690;8.952;2023-02-15T13:42:53;18.00;99.90
9107;DHT22;4589;48.690;8.952;2023-02-15T13:45:33;18.00;99.90
9107;DHT22;4589;48.690;8.952;2023-02-15T13:50:54;18.10;99.90
9107;DHT22;4589;48.690;8.952;2023-02-15T13:59:14;17.30;99.90
9107;DHT22;4589;48.690;8.952;2023-02-15T14:07:08;16.60;99.90
9107;DHT22;4589;48.690;8.952;2023-02-15T14:15:13;15.90;99.90
9107;DHT22;4589;48.690;8.952;2023-02-15T14:18:12;16.00;99.90
9107;DHT22;4589;48.690;8.952;2023-02-15T14:31:45;14.40;99.90
9107;DHT22;4589;48.690;8.952;2023-02-15T14:34:23;14.30;99.90
9107;DHT22;4589;48.690;8.952;2023-02-15T14:36:51;14.10;99.90
9107;DHT22;4589;48.690;8.952;2023-02-15T14:39:31;14.10;99.90
9107;DHT22;4589;48.690;8.952;2023-02-15T14:42:39;13.90;99.90
9107;DHT22;4589;48.690;8.952;2023-02-15T14:48:19;13.60;99.90
9107;DHT22;4589;48.690;8.952;2023-02-15T14:50:47;13.50;99.90
9107;DHT22;4589;48.690;8.952;2023-02-15T14:58:55;13.40;99.90
9107;DHT22;4589;48.690;8.952;2023-02-15T15:01:30;13.30;99.90
9107;DHT22;4589;48.690;8.952;2023-02-15T15:04:09;13.20;99.90
9107;DHT22;4589;48.690;8.952;2023-02-15T15:06:40;13.10;99.90
9107;DHT22;4589;48.690;8.952;2023-02-15T15:09:13;13.10;99.90
9107;DHT22;4589;48.690;8.952;2023-02-15T15:11:49;13.00;99.90
9107;DHT22;4589;48.690;8.952;2023-02-15T15:16:57;12.80;99.90
9107;DHT22;4589;48.690;8.952;2023-02-15T15:22:24;12.50;99.90
9107;DHT22;4589;48.690;8.952;2023-02-15T15:24:52;12.40;99.90
9107;DHT22;4589;48.690;8.952;2023-02-15T15:27:53;12.30;99.90
9107;DHT22;4589;48.690;8.952;2023-02-15T15:35:58;11.90;99.90
9107;DHT22;4589;48.690;8.952;2023-02-15T15:49:38;11.30;99.90
9107;DHT22;4589;48.690;8.952;2023-02-15T15:52:19;11.20;99.90
9107;DHT22;4589;48.690;8.952;2023-02-15T15:54:48;11.00;99.90
9107;DHT22;4589;48.690;8.952;2023-02-15T15:57:27;10.80;99.90
9107;DHT22;4589;48.690;8.952;2023-02-15T15:59:53;10.60;99.90
9107;DHT22;4589;48.690;8.952;2023-02-15T16:02:19;10.50;99.90
9107;DHT22;4589;48.690;8.952;2023-02-15T16:04:46;10.50;99.90
9107;DHT22;4589;48.690;8.952;2023-02-15T16:09:53;10.20;99.90
9107;DHT22;4589;48.690;8.952;2023-02-15T16:12:19;10.00;99.90
9107;DHT22;4589;48.690;8.952;2023-02-15T16:17:20;9.60;99.90
9107;DHT22;4589;48.690;8.952;2023-02-15T16:19:47;9.40;99.90
9107;DHT22;4589;48.690;8.952;2023-02-15T16:22:20;9.30;99.90
9107;DHT22;4589;48.690;8.952;2023-02-15T16:27:44;8.80;99.90
9107;DHT22;4589;48.690;8.952;2023-02-15T16:32:43;8.50;99.90
9107;DHT22;4589;48.690;8.952;2023-02-15T16:35:14;8.30;99.90
9107;DHT22;4589;48.690;8.952;2023-02-15T16:42:34;7.80;99.90
9107;DHT22;4589;48.690;8.952;2023-02-15T16:45:14;7.70;99.90
9107;DHT22;4589;48.690;8.952;2023-02-15T16:47:43;7.50;99.90
9107;DHT22;4589;48.690;8.952;2023-02-15T16:50:22;7.40;99.90
9107;DHT22;4589;48.690;8.952;2023-02-15T16:55:24;7.30;99.90
9107;DHT22;4589;48.690;8.952;2023-02-15T16:57:51;7.20;99.90
9107;DHT22;4589;48.690;8.952;2023-02-15T17:00:21;7.10;99.90
9107;DHT22;4589;48.690;8.952;2023-02-15T17:03:04;7.00;99.90
9107;DHT22;4589;48.690;8.952;2023-02-15T17:05:51;6.90;99.90
9107;DHT22;4589;48.690;8.952;2023-02-15T17:08:28;6.80;99.90
9107;DHT22;4589;48.690;8.952;2023-02-15T17:11:16;6.70;99.90
9107;DHT22;4589;48.690;8.952;2023-02-15T17:16:50;6.50;99.90
9107;DHT22;4589;48.690;8.952;2023-02-15T17:19:30;6.30;99.90
9107;DHT22;4589;48.690;8.952;2023-02-15T17:22:06;6.20;99.90
9107;DHT22;4589;48.690;8.952;2023-02-15T17:24:42;6.00;99.90
9107;DHT22;4589;48.690;8.952;2023-02-15T17:27:23;5.80;99.90
9107;DHT22;4589;48.690;8.952;2023-02-15T17:30:17;5.60;99.90
9107;DHT22;4589;48.690;8.952;2023-02-15T17:33:19;5.40;99.90
9107;DHT22;4589;48.690;8.952;2023-02-15T17:36:11;5.30;99.90
9107;DHT22;4589;48.690;8.952;2023-02-15T17:38:39;5.20;99.90
9107;DHT22;4589;48.690;8.952;2023-02-15T17:41:06;4.20;99.90
9107;DHT22;4589;48.690;8.952;2023-02-15T17:43:32;4.90;99.90
9107;DHT22;4589;48.690;8.952;2023-02-15T17:48:30;4.70;99.90
9107;DHT22;4589;48.690;8.952;2023-02-15T17:50:58;4.60;99.90
9107;DHT22;4589;48.690;8.952;2023-02-15T17:53:24;4.50;99.90
9107;DHT22;4589;48.690;8.952;2023-02-15T17:55:50;4.50;99.90
9107;DHT22;4589;48.690;8.952;2023-02-15T17:58:18;4.40;99.90
9107;DHT22;4589;48.690;8.952;2023-02-15T18:00:57;4.30;99.90
9107;DHT22;4589;48.690;8.952;2023-02-15T18:03:48;4.10;99.90
9107;DHT22;4589;48.690;8.952;2023-02-15T18:06:43;4.00;99.90
9107;DHT22;4589;48.690;8.952;2023-02-15T18:09:27;3.80;99.90
9107;DHT22;4589;48.690;8.952;2023-02-15T18:12:20;3.80;99.90
9107;DHT22;4589;48.690;8.952;2023-02-15T18:14:46;3.70;99.90
9107;DHT22;4589;48.690;8.952;2023-02-15T18:17:13;3.70;99.90
9107;DHT22;4589;48.690;8.952;2023-02-15T18:19:41;3.60;99.90
9107;DHT22;4589;48.690;8.952;2023-02-15T18:22:12;3.60;99.90
9107;DHT22;4589;48.690;8.952;2023-02-15T18:24:38;3.50;99.90
9107;DHT22;4589;48.690;8.952;2023-02-15T18:27:04;3.50;99.90
9107;DHT22;4589;48.690;8.952;2023-02-15T18:29:30;3.60;99.90
9107;DHT22;4589;48.690;8.952;2023-02-15T18:34:31;3.60;99.90
9107;DHT22;4589;48.690;8.952;2023-02-15T18:36:59;3.40;99.90
9107;DHT22;4589;48.690;8.952;2023-02-15T18:51:44;3.30;99.90
9107;DHT22;4589;48.690;8.952;2023-02-15T18:54:17;3.20;99.90
9107;DHT22;4589;48.690;8.952;2023-02-15T18:56:43;3.20;99.90
9107;DHT22;4589;48.690;8.952;2023-02-15T18:59:14;3.20;99.90
9107;DHT22;4589;48.690;8.952;2023-02-15T19:06:33;3.00;99.90
9107;DHT22;4589;48.690;8.952;2023-02-15T19:11:27;2.80;99.90
9107;DHT22;4589;48.690;8.952;2023-02-15T19:13:52;2.70;99.90
9107;DHT22;4589;48.690;8.952;2023-02-15T19:16:29;2.70;99.90
9107;DHT22;4589;48.690;8.952;2023-02-15T19:21:21;2.60;99.90
9107;DHT22;4589;48.690;8.952;2023-02-15T19:23:55;2.30;99.90
9107;DHT22;4589;48.690;8.952;2023-02-15T19:31:13;2.20;99.90
9107;DHT22;4589;48.690;8.952;2023-02-15T19:36:09;1.90;99.90
9107;DHT22;4589;48.690;8.952;2023-02-15T19:38:38;1.70;99.90
9107;DHT22;4589;48.690;8.952;2023-02-15T19:41:08;1.60;99.90
9107;DHT22;4589;48.690;8.952;2023-02-15T19:53:25;1.40;99.90
9107;DHT22;4589;48.690;8.952;2023-02-15T19:58:17;1.20;99.90
9107;DHT22;4589;48.690;8.952;2023-02-15T20:00:44;1.20;99.90
9107;DHT22;4589;48.690;8.952;2023-02-15T20:05:37;1.10;99.90
9107;DHT22;4589;48.690;8.952;2023-02-15T20:08:04;0.90;99.90
9107;DHT22;4589;48.690;8.952;2023-02-15T20:10:33;0.80;99.90
9107;DHT22;4589;48.690;8.952;2023-02-15T20:12:59;0.70;99.90
9107;DHT22;4589;48.690;8.952;2023-02-15T20:17:52;0.50;99.90
9107;DHT22;4589;48.690;8.952;2023-02-15T20:20:18;0.50;99.90
9107;DHT22;4589;48.690;8.952;2023-02-15T20:22:46;0.60;99.90
9107;DHT22;4589;48.690;8.952;2023-02-15T20:25:19;0.60;99.90
9107;DHT22;4589;48.690;8.952;2023-02-15T20:27:45;0.60;99.90
9107;DHT22;4589;48.690;8.952;2023-02-15T20:30:14;0.50;99.90
9107;DHT22;4589;48.690;8.952;2023-02-15T20:35:12;0.60;99.90
9107;DHT22;4589;48.690;8.952;2023-02-15T20:40:13;0.80;99.90
9107;DHT22;4589;48.690;8.952;2023-02-15T20:42:39;0.70;99.90
9107;DHT22;4589;48.690;8.952;2023-02-15T20:47:44;0.50;99.90
9107;DHT22;4589;48.690;8.952;2023-02-15T20:50:23;0.30;99.90
9107;DHT22;4589;48.690;8.952;2023-02-15T20:52:51;0.50;99.90
9107;DHT22;4589;48.690;8.952;2023-02-15T20:55:19;0.50;99.90
9107;DHT22;4589;48.690;8.952;2023-02-15T20:57:46;0.60;99.90
9107;DHT22;4589;48.690;8.952;2023-02-15T21:00:14;0.60;99.90
9107;DHT22;4589;48.690;8.952;2023-02-15T21:05:15;0.40;99.90
9107;DHT22;4589;48.690;8.952;2023-02-15T21:10:13;0.10;99.90
9107;DHT22;4589;48.690;8.952;2023-02-15T21:12:39;0.00;99.90
9107;DHT22;4589;48.690;8.952;2023-02-15T21:15:29;-0.20;99.90
9107;DHT22;4589;48.690;8.952;2023-02-15T21:17:57;-0.20;99.90
9107;DHT22;4589;48.690;8.952;2023-02-15T21:20:24;-0.30;99.90
9107;DHT22;4589;48.690;8.952;2023-02-15T21:22:50;-0.40;99.90
9107;DHT22;4589;48.690;8.952;2023-02-15T21:25:49;-0.50;99.90
9107;DHT22;4589;48.690;8.952;2023-02-15T21:28:17;-0.60;99.90
9107;DHT22;4589;48.690;8.952;2023-02-15T21:30:44;-0.50;99.90
9107;DHT22;4589;48.690;8.952;2023-02-15T21:33:10;-0.40;99.90
9107;DHT22;4589;48.690;8.952;2023-02-15T21:35:35;-0.40;99.90
9107;DHT22;4589;48.690;8.952;2023-02-15T21:38:02;-0.60;99.90
9107;DHT22;4589;48.690;8.952;2023-02-15T21:40:30;-0.60;99.90
9107;DHT22;4589;48.690;8.952;2023-02-15T21:42:57;-0.70;99.90
9107;DHT22;4589;48.690;8.952;2023-02-15T21:45:42;-0.60;99.90
9107;DHT22;4589;48.690;8.952;2023-02-15T21:48:26;-0.60;99.90
9107;DHT22;4589;48.690;8.952;2023-02-15T21:50:53;-0.60;99.90
9107;DHT22;4589;48.690;8.952;2023-02-15T21:53:40;-0.60;99.90
9107;DHT22;4589;48.690;8.952;2023-02-15T21:56:13;-0.50;99.90
9107;DHT22;4589;48.690;8.952;2023-02-15T22:01:09;-0.60;99.90
9107;DHT22;4589;48.690;8.952;2023-02-15T22:03:36;-0.50;99.90
9107;DHT22;4589;48.690;8.952;2023-02-15T22:06:03;-0.50;99.90
9107;DHT22;4589;48.690;8.952;2023-02-15T22:08:29;-0.60;99.90
9107;DHT22;4589;48.690;8.952;2023-02-15T22:10:55;-0.70;99.90
9107;DHT22;4589;48.690;8.952;2023-02-15T22:13:31;-0.60;99.90
9107;DHT22;4589;48.690;8.952;2023-02-15T22:15:58;-0.60;99.90
9107;DHT22;4589;48.690;8.952;2023-02-15T22:18:26;-0.60;99.90
9107;DHT22;4589;48.690;8.952;2023-02-15T22:23:19;-0.50;99.90
9107;DHT22;4589;48.690;8.952;2023-02-15T22:25:52;-0.50;99.90
9107;DHT22;4589;48.690;8.952;2023-02-15T22:28:22;-0.50;99.90
9107;DHT22;4589;48.690;8.952;2023-02-15T22:30:49;-0.60;99.90
9107;DHT22;4589;48.690;8.952;2023-02-15T22:33:24;-0.60;99.90
9107;DHT22;4589;48.690;8.952;2023-02-15T22:35:50;-0.60;99.90
9107;DHT22;4589;48.690;8.952;2023-02-15T22:40:42;-0.70;99.90
9107;DHT22;4589;48.690;8.952;2023-02-15T22:45:59;-0.80;99.90
9107;DHT22;4589;48.690;8.952;2023-02-15T22:48:26;-0.80;99.90
9107;DHT22;4589;48.690;8.952;2023-02-15T22:53:18;-0.70;99.90
9107;DHT22;4589;48.690;8.952;2023-02-15T22:58:24;-0.70;99.90
9107;DHT22;4589;48.690;8.952;2023-02-15T23:03:24;-0.80;99.90
9107;DHT22;4589;48.690;8.952;2023-02-15T23:05:50;-0.60;99.90
9107;DHT22;4589;48.690;8.952;2023-02-15T23:08:17;-0.60;99.90
9107;DHT22;4589;48.690;8.952;2023-02-15T23:10:44;-0.50;99.90
9107;DHT22;4589;48.690;8.952;2023-02-15T23:13:22;-0.60;99.90
9107;DHT22;4589;48.690;8.952;2023-02-15T23:15:57;-0.80;99.90
9107;DHT22;4589;48.690;8.952;2023-02-15T23:21:23;-0.90;99.90
9107;DHT22;4589;48.690;8.952;2023-02-15T23:23:49;-1.10;99.90
9107;DHT22;4589;48.690;8.952;2023-02-15T23:26:21;-1.00;99.90
9107;DHT22;4589;48.690;8.952;2023-02-15T23:28:47;-1.00;99.90
9107;DHT22;4589;48.690;8.952;2023-02-15T23:31:41;-1.10;99.90
9107;DHT22;4589;48.690;8.952;2023-02-15T23:34:31;-1.00;99.90
9107;DHT22;4589;48.690;8.952;2023-02-15T23:39:27;-1.00;99.90
9107;DHT22;4589;48.690;8.952;2023-02-15T23:42:17;-1.00;99.90
9107;DHT22;4589;48.690;8.952;2023-02-15T23:44:45;-1.00;99.90
9107;DHT22;4589;48.690;8.952;2023-02-15T23:52:41;-0.90;99.90
9107;DHT22;4589;48.690;8.952;2023-02-15T23:55:06;-1.00;99.90
